aviador You're here:

UKDD Decoded Metar

DNEPROPETROVSK in UKRAINE
Report Time2018-01-22 01:40:00
UTC Time2018-01-22 02:00:01
Flight Rules ifr IFR
Wind030° at 6 kt
W.Decomp.*RWY 08: 3.3 kt HW 5 kt LCW
W.Rank030° ranks 2
Current wind is below 030° avg. (8.4)
Visibility3400 m
Phenomena:Mist
Clouds:N/A
Expected CloudBase > 800 ft AGL from Temp-Dew spread
CeilingNone
Temp-7°C (ISA -21)
Dew Point-9°C (86% RH)
AAT-12.1°C
QNH1014 hPa
Density Alt-2,110 ft
Elevation489 ft
Report Wrong Elevation
Raw Report
SPECI UKDD 220140Z 03003MPS 3400 BR NSC M07/M09 Q1014
R08/914070 NOSIG=####018000078####
SAIN90 VOHY 220130

Extra information for UKDD:More info

Metar Taf Metar & Taf Last 4 Metars F.Rules Stats Wind Profile Meteogram Temp Stats Airport Information Weather charts Add Link Nearby VenuesMetar ALERT Operation Metar Decoded Social comments